Time;durP1;ratioP1;P1;durP2;ratioP2;P2;SDS_P1;SDS_P2;PMS_P1;PMS_P2;Temp;Humidity;BMP_temperature;BMP_pressure;BME280_temperature;BME280_humidity;BME280_pressure;Samples;Min_cycle;Max_cycle;Signal;HPM_P1;HPM_P2
2023/05/30 00:01:38;;;;;;;;;;;;;;;;;;5065056;28;20371;-78
2023/05/30 00:04:04;;;;;;;;;;;;;;;;;;5072133;28;20394;-78
2023/05/30 00:06:30;;;;;;;;;;;;;;;;;;5068737;28;19921;-79
2023/05/30 00:08:56;;;;;;;;;;;;;;;;;;5070443;28;19965;-79
2023/05/30 00:11:23;;;;;;;;;;;;;;;;;;5057024;28;19923;-79
2023/05/30 00:13:49;;;;;;;;;;;;;;;;;;5056288;28;19921;-78
2023/05/30 00:16:15;;;;;;;;;;;;;;;;;;5063175;28;20252;-78
2023/05/30 00:18:41;;;;;;;;;;;;;;;;;;5075591;28;19947;-80
2023/05/30 00:21:07;;;;;;;;;;;;;;;;;;5054714;28;20447;-80
2023/05/30 00:23:33;;;;;;;;;;;;;;;;;;5058084;28;19924;-78
2023/05/30 00:25:59;;;;;;;;;;;;;;;;;;5064022;28;19966;-78
2023/05/30 00:28:25;;;;;;;;;;;;;;;;;;5081242;28;22031;-79
2023/05/30 00:30:51;;;;;;;;;;;;;;;;;;5048874;28;19927;-79
2023/05/30 00:33:17;;;;;;;;;;;;;;;;;;5070214;28;19923;-79
2023/05/30 00:35:43;;;;;;;;;;;;;;;;;;5063280;28;19920;-79
2023/05/30 00:38:09;;;;;;;;;;;;;;;;;;5052293;28;19975;-78
2023/05/30 00:40:35;;;;;;;;;;;;;;;;;;5057159;28;19931;-80
2023/05/30 00:43:00;;;;;;;;;;;;;;;;;;5051230;28;19928;-78
2023/05/30 00:45:26;;;;;;;;;;;;;;;;;;5059967;28;20701;-79
2023/05/30 00:47:53;;;;;;;;;;;;;;;;;;5071487;28;19924;-79
2023/05/30 00:50:19;;;;;;;;;;;;;;;;;;5063764;28;20019;-78
2023/05/30 00:52:45;;;;;;;;;;;;;;;;;;5079847;28;20580;-78
2023/05/30 00:55:11;;;;;;;;;;;;;;;;;;5075843;28;20463;-78
2023/05/30 00:57:37;;;;;;;;;;;;;;;;;;5051712;28;19924;-81
2023/05/30 01:00:03;;;;;;;;;;;;;;;;;;5076622;28;19924;-78
2023/05/30 01:02:29;;;;;;;;;;;;;;;;;;5072554;28;20286;-82
2023/05/30 01:04:55;;;;;;;;;;;;;;;;;;5050874;28;19925;-79
2023/05/30 01:07:21;;;;;;;;;;;;;;;;;;5068438;28;19928;-79
2023/05/30 01:09:47;;;;;;;;;;;;;;;;;;5074605;28;19920;-79
2023/05/30 01:12:13;;;;;;;;;;;;;;;;;;5071833;28;20394;-79
2023/05/30 01:14:39;;;;;;;;;;;;;;;;;;5072342;28;19920;-78
2023/05/30 01:17:05;;;;;;;;;;;;;;;;;;5061263;28;19931;-80
2023/05/30 01:19:31;;;;;;;;;;;;;;;;;;5064147;28;19928;-78
2023/05/30 01:21:57;;;;;;;;;;;;;;;;;;5058611;28;19924;-80
2023/05/30 01:24:23;;;;;;;;;;;;;;;;;;5067825;28;20504;-79
2023/05/30 01:26:49;;;;;;;;;;;;;;;;;;5063452;28;20359;-78
2023/05/30 01:29:17;;;;;;;;;;;;;;;;;;5060786;28;19920;-80
2023/05/30 01:31:43;;;;;;;;;;;;;;;;;;5060470;28;19925;-79
2023/05/30 01:34:09;;;;;;;;;;;;;;;;;;5079160;28;19927;-79
2023/05/30 01:36:35;;;;;;;;;;;;;;;;;;5079330;28;19924;-80
2023/05/30 01:39:01;;;;;;;;;;;;;;;;;;5057835;28;19916;-79
2023/05/30 01:41:27;;;;;;;;;;;;;;;;;;5058404;28;19973;-80
2023/05/30 01:43:53;;;;;;;;;;;;;;;;;;5058872;28;20019;-79
2023/05/30 01:46:20;;;;;;;;;;;;;;;;;;5050383;28;20419;-80
2023/05/30 01:48:46;;;;;;;;;;;;;;;;;;5052483;28;19952;-80
2023/05/30 01:51:12;;;;;;;;;;;;;;;;;;5056777;28;20536;-80
2023/05/30 01:53:38;;;;;;;;;;;;;;;;;;5077341;28;19920;-80
2023/05/30 01:56:04;;;;;;;;;;;;;;;;;;5058643;28;20482;-80
2023/05/30 01:58:30;;;;;;;;;;;;;;;;;;5058714;28;19971;-79
2023/05/30 02:00:56;;;;;;;;;;;;;;;;;;5072736;28;20009;-79
2023/05/30 02:03:23;;;;;;;;;;;;;;;;;;5057170;28;20019;-78
2023/05/30 02:05:49;;;;;;;;;;;;;;;;;;5072023;28;20164;-80
2023/05/30 02:08:15;;;;;;;;;;;;;;;;;;5062286;28;20363;-78
2023/05/30 02:10:41;;;;;;;;;;;;;;;;;;5067029;28;19931;-80
2023/05/30 02:13:07;;;;;;;;;;;;;;;;;;5071677;28;19923;-79
2023/05/30 02:15:32;;;;;;;;;;;;;;;;;;5073007;28;19935;-79
2023/05/30 02:18:02;;;;;;;;;;;;;;;;;;5072865;28;19928;-78
2023/05/30 02:20:28;;;;;;;;;;;;;;;;;;5074893;28;19924;-80
2023/05/30 02:22:54;;;;;;;;;;;;;;;;;;5052922;28;19923;-79
2023/05/30 02:25:20;;;;;;;;;;;;;;;;;;5051333;28;20000;-81
2023/05/30 02:27:47;;;;;;;;;;;;;;;;;;5060082;28;19924;-77
2023/05/30 02:30:13;;;;;;;;;;;;;;;;;;5059477;28;19928;-79
2023/05/30 02:32:39;;;;;;;;;;;;;;;;;;5057760;28;19935;-80
2023/05/30 02:35:05;;;;;;;;;;;;;;;;;;5056009;28;19942;-80
2023/05/30 02:37:31;;;;;;;;;;;;;;;;;;5053070;28;19927;-79
2023/05/30 02:39:57;;;;;;;;;;;;;;;;;;5054133;28;19924;-79
2023/05/30 02:42:23;;;;;;;;;;;;;;;;;;5070671;28;19935;-79
2023/05/30 02:44:49;;;;;;;;;;;;;;;;;;5069317;28;19931;-78
2023/05/30 02:47:16;;;;;;;;;;;;;;;;;;5053723;28;20741;-79
2023/05/30 02:49:42;;;;;;;;;;;;;;;;;;5052404;28;20470;-79
2023/05/30 02:52:07;;;;;;;;;;;;;;;;;;5056861;28;20011;-79
2023/05/30 02:54:33;;;;;;;;;;;;;;;;;;5072237;28;20006;-79
2023/05/30 02:57:00;;;;;;;;;;;;;;;;;;5072237;28;20326;-80
2023/05/30 02:59:26;;;;;;;;;;;;;;;;;;5061914;28;19924;-79
2023/05/30 03:01:52;;;;;;;;;;;;;;;;;;5055742;28;19931;-80
2023/05/30 03:04:17;;;;;;;;;;;;;;;;;;5054936;28;20712;-80
2023/05/30 03:06:44;;;;;;;;;;;;;;;;;;5051585;28;19966;-80
2023/05/30 03:09:11;;;;;;;;;;;;;;;;;;5062575;28;19924;-79
2023/05/30 03:11:37;;;;;;;;;;;;;;;;;;5067257;28;19951;-80
2023/05/30 03:14:02;;;;;;;;;;;;;;;;;;5057815;28;19920;-80
2023/05/30 03:16:28;;;;;;;;;;;;;;;;;;5075657;28;19924;-79
2023/05/30 03:18:54;;;;;;;;;;;;;;;;;;5077799;28;20371;-79
2023/05/30 03:21:20;;;;;;;;;;;;;;;;;;5076783;28;20403;-78
2023/05/30 03:23:48;;;;;;;;;;;;;;;;;;5065888;28;19920;-80
2023/05/30 03:26:14;;;;;;;;;;;;;;;;;;5051177;28;19935;-79
2023/05/30 03:28:40;;;;;;;;;;;;;;;;;;5064333;28;19924;-79
2023/05/30 03:31:06;;;;;;;;;;;;;;;;;;5066329;28;19927;-79
2023/05/30 03:33:31;;;;;;;;;;;;;;;;;;5066256;28;19924;-80
2023/05/30 03:35:58;;;;;;;;;;;;;;;;;;5061570;28;20423;-80
2023/05/30 03:38:23;;;;;;;;;;;;;;;;;;5075989;28;19974;-79
2023/05/30 03:40:49;;;;;;;;;;;;;;;;;;5064366;28;20365;-79
2023/05/30 03:43:15;;;;;;;;;;;;;;;;;;5067957;28;19928;-80
2023/05/30 03:45:41;;;;;;;;;;;;;;;;;;5058554;28;19942;-79
2023/05/30 03:48:07;;;;;;;;;;;;;;;;;;5057480;28;20394;-80
2023/05/30 03:50:33;;;;;;;;;;;;;;;;;;5051505;28;19924;-79
2023/05/30 03:52:59;;;;;;;;;;;;;;;;;;5068738;28;20385;-81
2023/05/30 03:55:25;;;;;;;;;;;;;;;;;;5073329;28;19924;-78
2023/05/30 03:57:51;;;;;;;;;;;;;;;;;;5055560;28;19920;-79
2023/05/30 04:00:18;;;;;;;;;;;;;;;;;;5060384;28;19946;-78
2023/05/30 04:02:44;;;;;;;;;;;;;;;;;;5057495;28;20264;-79
2023/05/30 04:05:10;;;;;;;;;;;;;;;;;;5082110;28;20551;-79
2023/05/30 04:07:36;;;;;;;;;;;;;;;;;;5051579;28;19924;-79
2023/05/30 04:10:03;;;;;;;;;;;;;;;;;;5070891;28;19924;-78
2023/05/30 04:12:28;;;;;;;;;;;;;;;;;;5069470;28;19924;-81
2023/05/30 04:14:54;;;;;;;;;;;;;;;;;;5071809;28;20694;-79
2023/05/30 04:17:21;;;;;;;;;;;;;;;;;;5059662;28;21756;-78
2023/05/30 04:19:47;;;;;;;;;;;;;;;;;;5067559;28;19999;-79
2023/05/30 04:22:13;;;;;;;;;;;;;;;;;;5060606;28;19932;-79
2023/05/30 04:24:39;;;;;;;;;;;;;;;;;;5055017;28;20307;-78
2023/05/30 04:27:05;;;;;;;;;;;;;;;;;;5081094;28;19920;-78
2023/05/30 04:29:31;;;;;;;;;;;;;;;;;;5057992;28;19934;-79
2023/05/30 04:31:57;;;;;;;;;;;;;;;;;;5056386;28;19921;-80
2023/05/30 04:34:24;;;;;;;;;;;;;;;;;;5058102;28;19920;-78
2023/05/30 04:36:52;;;;;;;;;;;;;;;;;;5052941;28;19924;-79
2023/05/30 04:39:17;;;;;;;;;;;;;;;;;;5076812;28;19920;-78
2023/05/30 04:41:43;;;;;;;;;;;;;;;;;;5059376;28;19969;-79
2023/05/30 04:44:09;;;;;;;;;;;;;;;;;;5049997;28;20000;-78
2023/05/30 04:46:36;;;;;;;;;;;;;;;;;;5070209;28;19920;-79
2023/05/30 04:49:02;;;;;;;;;;;;;;;;;;5070273;28;19920;-81
2023/05/30 04:51:27;;;;;;;;;;;;;;;;;;5057154;28;19931;-79
2023/05/30 04:53:53;;;;;;;;;;;;;;;;;;5063733;28;19924;-78
2023/05/30 04:56:22;;;;;;;;;;;;;;;;;;5050284;28;20402;-79
2023/05/30 04:58:48;;;;;;;;;;;;;;;;;;5074346;28;20018;-80
2023/05/30 05:01:14;;;;;;;;;;;;;;;;;;5057477;28;20002;-81
2023/05/30 05:03:40;;;;;;;;;;;;;;;;;;5056857;28;19928;-79
2023/05/30 05:06:06;;;;;;;;;;;;;;;;;;5082141;28;19924;-79
2023/05/30 05:08:33;;;;;;;;;;;;;;;;;;5077068;28;19924;-79
2023/05/30 05:10:59;;;;;;;;;;;;;;;;;;5080232;28;20403;-79
2023/05/30 05:13:25;;;;;;;;;;;;;;;;;;5071093;28;19924;-82
2023/05/30 05:15:52;;;;;;;;;;;;;;;;;;5054131;28;20027;-78
2023/05/30 05:18:18;;;;;;;;;;;;;;;;;;5061518;28;20011;-80
2023/05/30 05:20:44;;;;;;;;;;;;;;;;;;5060098;28;19924;-80
2023/05/30 05:23:10;;;;;;;;;;;;;;;;;;5073737;28;20276;-81
2023/05/30 05:25:36;;;;;;;;;;;;;;;;;;5071476;28;19931;-80
2023/05/30 05:28:01;;;;;;;;;;;;;;;;;;5070129;28;19924;-79
2023/05/30 05:30:27;;;;;;;;;;;;;;;;;;5073295;28;20382;-79
2023/05/30 05:32:53;;;;;;;;;;;;;;;;;;5071304;28;19928;-79
2023/05/30 05:35:19;;;;;;;;;;;;;;;;;;5075438;28;19928;-81
2023/05/30 05:37:45;;;;;;;;;;;;;;;;;;5072959;28;20050;-79
2023/05/30 05:40:11;;;;;;;;;;;;;;;;;;5074133;28;20472;-79
2023/05/30 05:42:37;;;;;;;;;;;;;;;;;;5053801;28;20402;-80
2023/05/30 05:45:03;;;;;;;;;;;;;;;;;;5063983;28;20038;-81
2023/05/30 05:47:29;;;;;;;;;;;;;;;;;;5061317;28;19998;-79
2023/05/30 05:49:55;;;;;;;;;;;;;;;;;;5080310;28;19931;-80
2023/05/30 05:52:21;;;;;;;;;;;;;;;;;;5076745;28;19940;-79
2023/05/30 05:54:47;;;;;;;;;;;;;;;;;;5074604;28;19927;-80
2023/05/30 05:57:12;;;;;;;;;;;;;;;;;;5073575;28;20642;-80
2023/05/30 05:59:38;;;;;;;;;;;;;;;;;;5070497;28;19935;-80
2023/05/30 06:02:05;;;;;;;;;;;;;;;;;;5073564;28;19955;-79
2023/05/30 06:04:31;;;;;;;;;;;;;;;;;;5072482;28;19924;-79
2023/05/30 06:06:57;;;;;;;;;;;;;;;;;;5079386;28;19931;-79
2023/05/30 06:09:24;;;;;;;;;;;;;;;;;;5071264;28;19931;-79
2023/05/30 06:11:50;;;;;;;;;;;;;;;;;;5073865;28;19920;-80
2023/05/30 06:14:16;;;;;;;;;;;;;;;;;;5063478;28;19944;-81
2023/05/30 06:16:42;;;;;;;;;;;;;;;;;;5078674;28;20285;-79
2023/05/30 06:19:08;;;;;;;;;;;;;;;;;;5079476;28;19924;-80
2023/05/30 06:21:35;;;;;;;;;;;;;;;;;;5063408;28;19935;-80
2023/05/30 06:24:03;;;;;;;;;;;;;;;;;;5077124;28;20338;-78
2023/05/30 06:26:29;;;;;;;;;;;;;;;;;;5080441;28;19928;-78
2023/05/30 06:28:55;;;;;;;;;;;;;;;;;;5081635;28;19924;-78
2023/05/30 06:31:20;;;;;;;;;;;;;;;;;;5057683;28;19920;-79
2023/05/30 06:33:46;;;;;;;;;;;;;;;;;;5062437;28;20349;-78
2023/05/30 06:36:12;;;;;;;;;;;;;;;;;;5042358;28;19924;-78
2023/05/30 06:38:38;;;;;;;;;;;;;;;;;;5060130;28;20335;-79
2023/05/30 06:41:04;;;;;;;;;;;;;;;;;;5053685;28;19924;-78
2023/05/30 06:43:30;;;;;;;;;;;;;;;;;;5065670;28;19916;-78
2023/05/30 06:45:56;;;;;;;;;;;;;;;;;;5057392;28;19931;-77
2023/05/30 06:48:22;;;;;;;;;;;;;;;;;;5063915;28;20002;-79
2023/05/30 06:50:48;;;;;;;;;;;;;;;;;;5065891;28;19935;-79
2023/05/30 06:53:14;;;;;;;;;;;;;;;;;;5064247;28;19924;-79
2023/05/30 06:55:40;;;;;;;;;;;;;;;;;;5066101;28;19931;-79
2023/05/30 06:58:06;;;;;;;;;;;;;;;;;;5081930;28;19920;-77
2023/05/30 07:00:32;;;;;;;;;;;;;;;;;;5065404;28;20406;-77
2023/05/30 07:03:00;;;;;;;;;;;;;;;;;;5078453;28;19921;-79
2023/05/30 07:05:26;;;;;;;;;;;;;;;;;;5057818;28;19928;-78
2023/05/30 07:07:51;;;;;;;;;;;;;;;;;;5082191;28;19921;-79
2023/05/30 07:10:17;;;;;;;;;;;;;;;;;;5081226;28;19950;-78
2023/05/30 07:12:44;;;;;;;;;;;;;;;;;;5049478;28;20457;-77
2023/05/30 07:15:10;;;;;;;;;;;;;;;;;;5061528;28;19924;-78
2023/05/30 07:17:36;;;;;;;;;;;;;;;;;;5051685;28;19975;-79
2023/05/30 07:20:02;;;;;;;;;;;;;;;;;;5063193;28;20364;-79
2023/05/30 07:22:27;;;;;;;;;;;;;;;;;;5060297;28;20412;-81
2023/05/30 07:24:53;;;;;;;;;;;;;;;;;;5061527;28;20377;-79
2023/05/30 07:27:19;;;;;;;;;;;;;;;;;;5077092;28;19970;-79
2023/05/30 07:29:45;;;;;;;;;;;;;;;;;;5048039;28;19928;-80
2023/05/30 07:32:12;;;;;;;;;;;;;;;;;;5066265;28;19927;-79
2023/05/30 07:34:38;;;;;;;;;;;;;;;;;;5045821;28;19931;-79
2023/05/30 07:37:04;;;;;;;;;;;;;;;;;;5062211;28;19928;-79
2023/05/30 07:39:30;;;;;;;;;;;;;;;;;;5066106;28;19916;-78
2023/05/30 07:41:56;;;;;;;;;;;;;;;;;;5083645;28;19931;-77
2023/05/30 07:44:22;;;;;;;;;;;;;;;;;;5065829;28;20367;-77
2023/05/30 07:46:48;;;;;;;;;;;;;;;;;;5067494;28;19963;-77
2023/05/30 07:49:14;;;;;;;;;;;;;;;;;;5065322;28;20002;-78
2023/05/30 07:51:40;;;;;;;;;;;;;;;;;;5051924;28;19924;-77
2023/05/30 07:54:06;;;;;;;;;;;;;;;;;;5068120;28;19927;-77
2023/05/30 07:56:31;;;;;;;;;;;;;;;;;;5067875;28;20003;-78
2023/05/30 07:58:57;;;;;;;;;;;;;;;;;;5067608;28;19924;-78
2023/05/30 08:01:23;;;;;;;;;;;;;;;;;;5066555;28;20015;-77
2023/05/30 08:03:49;;;;;;;;;;;;;;;;;;5067328;28;19990;-78
2023/05/30 08:06:16;;;;;;;;;;;;;;;;;;5066690;28;19932;-78
2023/05/30 08:08:42;;;;;;;;;;;;;;;;;;5068198;28;19956;-77
2023/05/30 08:11:08;;;;;;;;;;;;;;;;;;5066040;28;20458;-81
2023/05/30 08:13:34;;;;;;;;;;;;;;;;;;5066094;28;19930;-77
2023/05/30 08:16:01;;;;;;;;;;;;;;;;;;5066317;28;19924;-80
2023/05/30 08:18:30;;;;;;;;;;;;;;;;;;5067762;28;19921;-83
2023/05/30 08:20:56;;;;;;;;;;;;;;;;;;5068103;28;19920;-82
2023/05/30 08:23:22;;;;;;;;;;;;;;;;;;5066107;28;19921;-82
2023/05/30 08:25:48;;;;;;;;;;;;;;;;;;5051413;28;19927;-84
2023/05/30 08:28:14;;;;;;;;;;;;;;;;;;5083226;28;19974;-84
2023/05/30 08:30:41;;;;;;;;;;;;;;;;;;5081550;28;19967;-84
2023/05/30 08:33:10;;;;;;;;;;;;;;;;;;5066892;28;19920;-85
2023/05/30 08:35:35;;;;;;;;;;;;;;;;;;5065767;28;19932;-85
2023/05/30 08:38:01;;;;;;;;;;;;;;;;;;5072758;28;19970;-81
2023/05/30 08:40:27;;;;;;;;;;;;;;;;;;5049225;28;20326;-84
2023/05/30 08:42:53;;;;;;;;;;;;;;;;;;5066463;28;19925;-83
2023/05/30 08:45:19;;;;;;;;;;;;;;;;;;5049698;28;20381;-82
2023/05/30 08:47:45;;;;;;;;;;;;;;;;;;5072005;28;20058;-83
2023/05/30 08:50:12;;;;;;;;;;;;;;;;;;5064386;28;19978;-87
2023/05/30 08:52:38;;;;;;;;;;;;;;;;;;5050670;28;19920;-83
2023/05/30 08:55:05;;;;;;;;;;;;;;;;;;5080234;28;19951;-86
2023/05/30 08:57:31;;;;;;;;;;;;;;;;;;5066555;28;20015;-81
2023/05/30 08:59:57;;;;;;;;;;;;;;;;;;5066781;28;20011;-82
2023/05/30 09:02:23;;;;;;;;;;;;;;;;;;5066613;28;20416;-84
2023/05/30 09:04:53;;;;;;;;;;;;;;;;;;5067782;28;19931;-83
2023/05/30 09:07:18;;;;;;;;;;;;;;;;;;5064845;28;19920;-81
2023/05/30 09:09:45;;;;;;;;;;;;;;;;;;5082614;28;19924;-79
2023/05/30 09:12:11;;;;;;;;;;;;;;;;;;5083572;28;19925;-85
2023/05/30 09:14:37;;;;;;;;;;;;;;;;;;5049727;28;20328;-87
2023/05/30 09:17:03;;;;;;;;;;;;;;;;;;5067632;28;19927;-79
2023/05/30 09:19:28;;;;;;;;;;;;;;;;;;5067457;28;19920;-79
2023/05/30 09:21:54;;;;;;;;;;;;;;;;;;5067277;28;19942;-82
2023/05/30 09:24:21;;;;;;;;;;;;;;;;;;5066416;28;19924;-86
2023/05/30 09:26:47;;;;;;;;;;;;;;;;;;5082873;28;19989;-83
2023/05/30 09:29:13;;;;;;;;;;;;;;;;;;5065710;28;19999;-80
2023/05/30 09:31:39;;;;;;;;;;;;;;;;;;5066640;28;19920;-83
2023/05/30 09:34:05;;;;;;;;;;;;;;;;;;5066158;28;20015;-80
2023/05/30 09:36:31;;;;;;;;;;;;;;;;;;5064868;28;20014;-83
2023/05/30 09:38:57;;;;;;;;;;;;;;;;;;5066559;28;19924;-81
2023/05/30 09:41:26;;;;;;;;;;;;;;;;;;5064028;28;20383;-79
2023/05/30 09:43:53;;;;;;;;;;;;;;;;;;5062859;28;19927;-88
2023/05/30 09:46:23;;;;;;;;;;;;;;;;;;5064931;28;21217;-78
2023/05/30 09:48:49;;;;;;;;;;;;;;;;;;5068032;28;19924;-84
2023/05/30 09:51:18;;;;;;;;;;;;;;;;;;5066200;28;20387;-85
2023/05/30 09:53:45;;;;;;;;;;;;;;;;;;5042042;28;19931;-81
2023/05/30 09:56:10;;;;;;;;;;;;;;;;;;5057439;28;19929;-79
2023/05/30 09:58:36;;;;;;;;;;;;;;;;;;5060687;28;19931;-79
2023/05/30 10:01:03;;;;;;;;;;;;;;;;;;5056899;28;20387;-79
2023/05/30 10:03:29;;;;;;;;;;;;;;;;;;5083087;28;19924;-79
2023/05/30 10:05:56;;;;;;;;;;;;;;;;;;5048791;28;19935;-80
2023/05/30 10:08:22;;;;;;;;;;;;;;;;;;5056000;28;19959;-82
2023/05/30 10:10:48;;;;;;;;;;;;;;;;;;5048626;28;19928;-79
2023/05/30 10:13:17;;;;;;;;;;;;;;;;;;5062401;28;19935;-79
2023/05/30 10:15:43;;;;;;;;;;;;;;;;;;5067276;28;19924;-79
2023/05/30 10:18:09;;;;;;;;;;;;;;;;;;5065255;28;19935;-82
2023/05/30 10:20:35;;;;;;;;;;;;;;;;;;5060878;28;20360;-87
2023/05/30 10:23:06;;;;;;;;;;;;;;;;;;5065160;28;19931;-90
2023/05/30 10:25:32;;;;;;;;;;;;;;;;;;5066408;28;19932;-85
2023/05/30 10:27:58;;;;;;;;;;;;;;;;;;5065916;28;19920;-85
2023/05/30 10:30:26;;;;;;;;;;;;;;;;;;5066952;28;19928;-88
2023/05/30 10:32:53;;;;;;;;;;;;;;;;;;5057432;28;19925;-88
2023/05/30 10:35:19;;;;;;;;;;;;;;;;;;5047397;28;19935;-83
2023/05/30 10:37:46;;;;;;;;;;;;;;;;;;5049753;28;19931;-84
2023/05/30 10:40:12;;;;;;;;;;;;;;;;;;5045524;28;19927;-85
2023/05/30 10:42:42;;;;;;;;;;;;;;;;;;5072085;28;19920;-85
2023/05/30 10:45:08;;;;;;;;;;;;;;;;;;5065452;28;19978;-91
2023/05/30 10:47:37;;;;;;;;;;;;;;;;;;5064989;28;19920;-83
2023/05/30 10:50:07;;;;;;;;;;;;;;;;;;5066007;28;20460;-87
2023/05/30 10:52:33;;;;;;;;;;;;;;;;;;5082359;28;19928;-88
2023/05/30 10:55:02;;;;;;;;;;;;;;;;;;5068403;28;19924;-82
2023/05/30 10:57:45;;;;;;;;;;;;;;;;;;5062890;28;19921;-86
2023/05/30 11:00:13;;;;;;;;;;;;;;;;;;5071768;28;20314;-80
2023/05/30 11:02:39;;;;;;;;;;;;;;;;;;5061334;28;19924;-83
2023/05/30 11:05:05;;;;;;;;;;;;;;;;;;5070018;28;19998;-84
2023/05/30 11:07:31;;;;;;;;;;;;;;;;;;5059052;28;20027;-85
2023/05/30 11:09:57;;;;;;;;;;;;;;;;;;5065584;28;20449;-87
2023/05/30 11:12:23;;;;;;;;;;;;;;;;;;5071494;28;19920;-84
2023/05/30 11:14:52;;;;;;;;;;;;;;;;;;5068479;28;20249;-85
2023/05/30 11:17:17;;;;;;;;;;;;;;;;;;5085047;28;20286;-84
2023/05/30 11:19:43;;;;;;;;;;;;;;;;;;5051128;28;19947;-83
2023/05/30 11:22:10;;;;;;;;;;;;;;;;;;5057780;28;19972;-80
2023/05/30 11:24:36;;;;;;;;;;;;;;;;;;5072738;28;20436;-84
2023/05/30 11:27:06;;;;;;;;;;;;;;;;;;5061665;28;19920;-82
2023/05/30 11:29:32;;;;;;;;;;;;;;;;;;5062305;28;19921;-80
2023/05/30 11:31:58;;;;;;;;;;;;;;;;;;5063215;28;19929;-84
2023/05/30 11:34:24;;;;;;;;;;;;;;;;;;5082453;28;20569;-83
2023/05/30 11:36:50;;;;;;;;;;;;;;;;;;5077372;28;19990;-78
2023/05/30 11:39:16;;;;;;;;;;;;;;;;;;5050322;28;20367;-79
2023/05/30 11:41:42;;;;;;;;;;;;;;;;;;5062390;28;19936;-84
2023/05/30 11:44:11;;;;;;;;;;;;;;;;;;5073823;28;19973;-83
2023/05/30 11:46:40;;;;;;;;;;;;;;;;;;5066173;28;20281;-87
2023/05/30 11:49:06;;;;;;;;;;;;;;;;;;5042739;28;19931;-86
2023/05/30 11:51:32;;;;;;;;;;;;;;;;;;5063488;28;19920;-89
2023/05/30 11:53:58;;;;;;;;;;;;;;;;;;5052536;28;19990;-84
2023/05/30 11:56:24;;;;;;;;;;;;;;;;;;5063900;28;20766;-84
2023/05/30 11:58:50;;;;;;;;;;;;;;;;;;5051609;28;19920;-83
2023/05/30 12:01:16;;;;;;;;;;;;;;;;;;5060652;28;20394;-86
2023/05/30 12:03:46;;;;;;;;;;;;;;;;;;5066859;28;19928;-84
2023/05/30 12:06:12;;;;;;;;;;;;;;;;;;5057386;28;20211;-83
2023/05/30 12:08:38;;;;;;;;;;;;;;;;;;5061342;28;19924;-83
2023/05/30 12:11:04;;;;;;;;;;;;;;;;;;5056002;28;19924;-83
2023/05/30 12:13:30;;;;;;;;;;;;;;;;;;5044782;28;20292;-83
2023/05/30 12:15:59;;;;;;;;;;;;;;;;;;5037507;28;19924;-83
2023/05/30 12:18:25;;;;;;;;;;;;;;;;;;5041268;28;19935;-83
2023/05/30 12:20:54;;;;;;;;;;;;;;;;;;5058517;28;19924;-82
2023/05/30 12:23:19;;;;;;;;;;;;;;;;;;5046713;28;20008;-82
2023/05/30 12:25:45;;;;;;;;;;;;;;;;;;5063431;28;20032;-82
2023/05/30 12:28:12;;;;;;;;;;;;;;;;;;5063563;28;20019;-82
2023/05/30 12:30:40;;;;;;;;;;;;;;;;;;5060326;28;19920;-83
2023/05/30 12:33:06;;;;;;;;;;;;;;;;;;5062918;28;19947;-83
2023/05/30 12:35:32;;;;;;;;;;;;;;;;;;5073310;28;20360;-82
2023/05/30 12:37:58;;;;;;;;;;;;;;;;;;5036665;28;19924;-83
2023/05/30 12:40:23;;;;;;;;;;;;;;;;;;5037680;28;20368;-82
2023/05/30 12:42:49;;;;;;;;;;;;;;;;;;5045158;28;19962;-84
2023/05/30 12:45:15;;;;;;;;;;;;;;;;;;5057561;28;19920;-83
2023/05/30 12:47:41;;;;;;;;;;;;;;;;;;5069506;28;19925;-83
2023/05/30 12:50:07;;;;;;;;;;;;;;;;;;5054424;28;19943;-84
2023/05/30 12:52:33;;;;;;;;;;;;;;;;;;5048056;28;19928;-82
2023/05/30 12:54:59;;;;;;;;;;;;;;;;;;5060282;28;19920;-84
2023/05/30 12:57:25;;;;;;;;;;;;;;;;;;5045414;28;19925;-84
2023/05/30 12:59:52;;;;;;;;;;;;;;;;;;5042928;28;20382;-84
2023/05/30 13:02:24;;;;;;;;;;;;;;;;;;5054519;28;19943;-83
2023/05/30 13:04:53;;;;;;;;;;;;;;;;;;5062111;28;20444;-83
2023/05/30 13:07:19;;;;;;;;;;;;;;;;;;5047314;28;19928;-84
2023/05/30 13:09:45;;;;;;;;;;;;;;;;;;5042202;28;20110;-84
2023/05/30 13:12:14;;;;;;;;;;;;;;;;;;5062347;28;19928;-85
2023/05/30 13:14:40;;;;;;;;;;;;;;;;;;5045196;28;19941;-84
2023/05/30 13:17:06;;;;;;;;;;;;;;;;;;5062744;28;19932;-85
2023/05/30 13:19:32;;;;;;;;;;;;;;;;;;5046726;28;19924;-84
2023/05/30 13:21:58;;;;;;;;;;;;;;;;;;5051860;28;19969;-85
2023/05/30 13:24:24;;;;;;;;;;;;;;;;;;5069559;28;20753;-83
2023/05/30 13:26:50;;;;;;;;;;;;;;;;;;5059415;28;19924;-85
2023/05/30 13:29:16;;;;;;;;;;;;;;;;;;5043779;28;19924;-83
2023/05/30 13:31:43;;;;;;;;;;;;;;;;;;5056820;28;19950;-82
2023/05/30 13:34:09;;;;;;;;;;;;;;;;;;5039789;28;19924;-85
2023/05/30 13:36:36;;;;;;;;;;;;;;;;;;5075801;28;19924;-85
2023/05/30 13:39:02;;;;;;;;;;;;;;;;;;5074446;28;20487;-83
2023/05/30 13:41:28;;;;;;;;;;;;;;;;;;5056086;28;19935;-83
2023/05/30 13:43:55;;;;;;;;;;;;;;;;;;5040500;28;20304;-85
2023/05/30 13:46:21;;;;;;;;;;;;;;;;;;5044156;28;19927;-82
2023/05/30 13:48:47;;;;;;;;;;;;;;;;;;5055786;28;19924;-84
2023/05/30 13:51:13;;;;;;;;;;;;;;;;;;5046223;28;19920;-82
2023/05/30 13:53:39;;;;;;;;;;;;;;;;;;5064156;28;19969;-83
2023/05/30 13:56:06;;;;;;;;;;;;;;;;;;5080444;28;19927;-84
2023/05/30 13:58:34;;;;;;;;;;;;;;;;;;5063015;28;19924;-84
2023/05/30 14:01:01;;;;;;;;;;;;;;;;;;5060660;28;19920;-83
2023/05/30 14:03:27;;;;;;;;;;;;;;;;;;5064230;28;19928;-84
2023/05/30 14:05:53;;;;;;;;;;;;;;;;;;5046385;28;19924;-85
2023/05/30 14:08:20;;;;;;;;;;;;;;;;;;5045885;28;19920;-82
2023/05/30 14:10:46;;;;;;;;;;;;;;;;;;5067096;28;19928;-82
2023/05/30 14:13:12;;;;;;;;;;;;;;;;;;5044507;28;19924;-82
2023/05/30 14:15:38;;;;;;;;;;;;;;;;;;5042887;28;19920;-83
2023/05/30 14:18:04;;;;;;;;;;;;;;;;;;5054500;28;19928;-83
2023/05/30 14:20:30;;;;;;;;;;;;;;;;;;5053638;28;19935;-85
2023/05/30 14:22:56;;;;;;;;;;;;;;;;;;5054317;28;19928;-85
2023/05/30 14:25:22;;;;;;;;;;;;;;;;;;5064142;28;20072;-82
2023/05/30 14:27:50;;;;;;;;;;;;;;;;;;5064123;28;20781;-83
2023/05/30 14:30:17;;;;;;;;;;;;;;;;;;5061487;28;20019;-85
2023/05/30 14:32:46;;;;;;;;;;;;;;;;;;5063698;28;20049;-84
2023/05/30 14:35:12;;;;;;;;;;;;;;;;;;5045279;28;20397;-82
2023/05/30 14:37:38;;;;;;;;;;;;;;;;;;5060321;28;20500;-82
2023/05/30 14:40:04;;;;;;;;;;;;;;;;;;5047958;28;20070;-83
2023/05/30 14:42:30;;;;;;;;;;;;;;;;;;5063937;28;20376;-83
2023/05/30 14:44:56;;;;;;;;;;;;;;;;;;5063163;28;19927;-82
2023/05/30 14:47:22;;;;;;;;;;;;;;;;;;5047610;28;19916;-82
2023/05/30 14:49:48;;;;;;;;;;;;;;;;;;5062863;28;19920;-82
2023/05/30 14:52:14;;;;;;;;;;;;;;;;;;5064385;28;20438;-82
2023/05/30 14:54:40;;;;;;;;;;;;;;;;;;5063991;28;20265;-82
2023/05/30 14:57:06;;;;;;;;;;;;;;;;;;5061900;28;19924;-82
2023/05/30 14:59:32;;;;;;;;;;;;;;;;;;5051469;28;19933;-83
2023/05/30 15:01:58;;;;;;;;;;;;;;;;;;5066564;28;20383;-84
2023/05/30 15:04:24;;;;;;;;;;;;;;;;;;5066098;28;19971;-82
2023/05/30 15:06:50;;;;;;;;;;;;;;;;;;5065894;28;19924;-84
2023/05/30 15:09:16;;;;;;;;;;;;;;;;;;5057889;28;19926;-81
2023/05/30 15:11:42;;;;;;;;;;;;;;;;;;5067685;28;19924;-84
2023/05/30 15:14:08;;;;;;;;;;;;;;;;;;5082824;28;19993;-83
2023/05/30 15:16:35;;;;;;;;;;;;;;;;;;5072559;28;19924;-84
2023/05/30 15:19:01;;;;;;;;;;;;;;;;;;5073590;28;19943;-85
2023/05/30 15:21:27;;;;;;;;;;;;;;;;;;5075028;28;20678;-85
2023/05/30 15:23:53;;;;;;;;;;;;;;;;;;5072296;28;19926;-91
2023/05/30 15:26:19;;;;;;;;;;;;;;;;;;5083944;28;19981;-80
2023/05/30 15:28:45;;;;;;;;;;;;;;;;;;5082398;28;20283;-83
2023/05/30 15:31:11;;;;;;;;;;;;;;;;;;5089008;28;19976;-83
2023/05/30 15:33:37;;;;;;;;;;;;;;;;;;5100147;28;19928;-78
2023/05/30 15:36:03;;;;;;;;;;;;;;;;;;5094894;28;19924;-80
2023/05/30 15:38:29;;;;;;;;;;;;;;;;;;5080405;28;19924;-79
2023/05/30 15:40:55;;;;;;;;;;;;;;;;;;5084431;28;19974;-87
2023/05/30 15:43:21;;;;;;;;;;;;;;;;;;5074614;28;19912;-79
2023/05/30 15:45:47;;;;;;;;;;;;;;;;;;5061934;28;19978;-80
2023/05/30 15:48:13;;;;;;;;;;;;;;;;;;5069674;28;19924;-87
2023/05/30 15:50:39;;;;;;;;;;;;;;;;;;5050702;28;19930;-85
2023/05/30 15:53:05;;;;;;;;;;;;;;;;;;5068597;28;19923;-86
2023/05/30 15:55:31;;;;;;;;;;;;;;;;;;5057933;28;19920;-84
2023/05/30 15:57:58;;;;;;;;;;;;;;;;;;5059050;28;19932;-86
2023/05/30 16:00:24;;;;;;;;;;;;;;;;;;5056320;28;19924;-80
2023/05/30 16:02:50;;;;;;;;;;;;;;;;;;5062623;28;20371;-82
2023/05/30 16:05:16;;;;;;;;;;;;;;;;;;5063096;28;19967;-81
2023/05/30 16:07:42;;;;;;;;;;;;;;;;;;5069308;28;20051;-79
2023/05/30 16:10:08;;;;;;;;;;;;;;;;;;5051602;28;19923;-81
2023/05/30 16:12:34;;;;;;;;;;;;;;;;;;5072301;28;19999;-81
2023/05/30 16:15:00;;;;;;;;;;;;;;;;;;5066049;28;21058;-81
2023/05/30 16:17:28;;;;;;;;;;;;;;;;;;5070303;28;20034;-82
2023/05/30 16:19:54;;;;;;;;;;;;;;;;;;5067302;28;19932;-82
2023/05/30 16:22:20;;;;;;;;;;;;;;;;;;5064839;28;19925;-81
2023/05/30 16:24:46;;;;;;;;;;;;;;;;;;5061423;28;20299;-82
2023/05/30 16:27:12;;;;;;;;;;;;;;;;;;5050761;28;20276;-81
2023/05/30 16:29:41;;;;;;;;;;;;;;;;;;5047407;28;19960;-85
2023/05/30 16:32:07;;;;;;;;;;;;;;;;;;5055568;28;20027;-85
2023/05/30 16:34:33;;;;;;;;;;;;;;;;;;5056540;28;19928;-82
2023/05/30 16:36:58;;;;;;;;;;;;;;;;;;5053595;28;19974;-82
2023/05/30 16:39:25;;;;;;;;;;;;;;;;;;5044675;28;20304;-82